sensor_id;sensor_type;location;lat;lon;timestamp;P1;durP1;ratioP1;P2;durP2;ratioP2
24151;SDS011;12311;50.866;4.332;2023-05-21T00:00:18;2.83;;;1.70;;
24151;SDS011;12311;50.866;4.332;2023-05-21T00:02:45;1.80;;;1.33;;
24151;SDS011;12311;50.866;4.332;2023-05-21T00:05:13;2.53;;;1.42;;
24151;SDS011;12311;50.866;4.332;2023-05-21T00:07:41;4.43;;;1.52;;
24151;SDS011;12311;50.866;4.332;2023-05-21T00:10:06;5.05;;;1.52;;
24151;SDS011;12311;50.866;4.332;2023-05-21T00:12:32;2.55;;;2.15;;
24151;SDS011;12311;50.866;4.332;2023-05-21T00:14:58;2.15;;;1.33;;
24151;SDS011;12311;50.866;4.332;2023-05-21T00:17:25;2.28;;;1.58;;
24151;SDS011;12311;50.866;4.332;2023-05-21T00:19:52;3.60;;;1.70;;
24151;SDS011;12311;50.866;4.332;2023-05-21T00:22:18;2.47;;;1.40;;
24151;SDS011;12311;50.866;4.332;2023-05-21T00:24:44;2.75;;;1.50;;
24151;SDS011;12311;50.866;4.332;2023-05-21T00:27:10;3.67;;;1.92;;
24151;SDS011;12311;50.866;4.332;2023-05-21T00:29:36;3.05;;;1.67;;
24151;SDS011;12311;50.866;4.332;2023-05-21T00:32:02;3.80;;;2.00;;
24151;SDS011;12311;50.866;4.332;2023-05-21T00:34:28;2.22;;;1.30;;
24151;SDS011;12311;50.866;4.332;2023-05-21T00:36:54;4.20;;;1.65;;
24151;SDS011;12311;50.866;4.332;2023-05-21T00:39:20;3.08;;;2.10;;
24151;SDS011;12311;50.866;4.332;2023-05-21T00:41:45;3.35;;;1.90;;
24151;SDS011;12311;50.866;4.332;2023-05-21T00:44:12;4.47;;;1.50;;
24151;SDS011;12311;50.866;4.332;2023-05-21T00:46:40;3.13;;;1.98;;
24151;SDS011;12311;50.866;4.332;2023-05-21T00:49:08;3.05;;;1.70;;
24151;SDS011;12311;50.866;4.332;2023-05-21T00:51:38;3.95;;;1.98;;
24151;SDS011;12311;50.866;4.332;2023-05-21T00:54:04;2.60;;;1.67;;
24151;SDS011;12311;50.866;4.332;2023-05-21T00:56:30;2.72;;;1.95;;
24151;SDS011;12311;50.866;4.332;2023-05-21T00:58:57;2.38;;;1.75;;
24151;SDS011;12311;50.866;4.332;2023-05-21T01:01:23;4.10;;;1.63;;
24151;SDS011;12311;50.866;4.332;2023-05-21T01:03:57;8.23;;;2.20;;
24151;SDS011;12311;50.866;4.332;2023-05-21T01:06:26;5.70;;;2.03;;
24151;SDS011;12311;50.866;4.332;2023-05-21T01:08:52;3.95;;;1.75;;
24151;SDS011;12311;50.866;4.332;2023-05-21T01:11:20;6.63;;;2.00;;
24151;SDS011;12311;50.866;4.332;2023-05-21T01:14:11;4.20;;;2.30;;
24151;SDS011;12311;50.866;4.332;2023-05-21T01:16:39;3.22;;;2.00;;
24151;SDS011;12311;50.866;4.332;2023-05-21T01:19:09;2.80;;;1.88;;
24151;SDS011;12311;50.866;4.332;2023-05-21T01:21:44;4.90;;;1.90;;
24151;SDS011;12311;50.866;4.332;2023-05-21T01:24:14;2.33;;;1.85;;
24151;SDS011;12311;50.866;4.332;2023-05-21T01:26:40;4.40;;;2.03;;
24151;SDS011;12311;50.866;4.332;2023-05-21T01:29:08;3.33;;;2.33;;
24151;SDS011;12311;50.866;4.332;2023-05-21T01:37:21;4.07;;;1.83;;
24151;SDS011;12311;50.866;4.332;2023-05-21T01:40:10;7.80;;;2.95;;
24151;SDS011;12311;50.866;4.332;2023-05-21T01:42:42;4.60;;;2.25;;
24151;SDS011;12311;50.866;4.332;2023-05-21T01:45:10;4.03;;;2.08;;
24151;SDS011;12311;50.866;4.332;2023-05-21T01:47:38;3.92;;;2.58;;
24151;SDS011;12311;50.866;4.332;2023-05-21T01:50:05;5.30;;;2.50;;
24151;SDS011;12311;50.866;4.332;2023-05-21T01:52:31;3.97;;;1.90;;
24151;SDS011;12311;50.866;4.332;2023-05-21T01:54:57;5.10;;;2.25;;
24151;SDS011;12311;50.866;4.332;2023-05-21T01:57:24;3.58;;;2.20;;
24151;SDS011;12311;50.866;4.332;2023-05-21T01:59:50;3.90;;;2.35;;
24151;SDS011;12311;50.866;4.332;2023-05-21T02:02:17;4.50;;;2.08;;
24151;SDS011;12311;50.866;4.332;2023-05-21T02:04:43;3.60;;;2.10;;
24151;SDS011;12311;50.866;4.332;2023-05-21T02:07:10;4.57;;;2.22;;
24151;SDS011;12311;50.866;4.332;2023-05-21T02:09:38;3.38;;;2.17;;
24151;SDS011;12311;50.866;4.332;2023-05-21T02:12:05;6.15;;;2.88;;
24151;SDS011;12311;50.866;4.332;2023-05-21T02:14:31;3.58;;;2.10;;
24151;SDS011;12311;50.866;4.332;2023-05-21T02:17:00;4.32;;;2.40;;
24151;SDS011;12311;50.866;4.332;2023-05-21T02:19:26;2.80;;;2.00;;
24151;SDS011;12311;50.866;4.332;2023-05-21T02:21:51;3.50;;;2.20;;
24151;SDS011;12311;50.866;4.332;2023-05-21T02:24:17;3.60;;;1.95;;
24151;SDS011;12311;50.866;4.332;2023-05-21T02:26:42;4.18;;;2.50;;
24151;SDS011;12311;50.866;4.332;2023-05-21T02:29:08;3.25;;;2.10;;
24151;SDS011;12311;50.866;4.332;2023-05-21T02:31:34;5.32;;;2.33;;
24151;SDS011;12311;50.866;4.332;2023-05-21T02:34:00;5.25;;;2.10;;
24151;SDS011;12311;50.866;4.332;2023-05-21T02:36:25;3.35;;;2.17;;
24151;SDS011;12311;50.866;4.332;2023-05-21T02:38:52;3.47;;;2.30;;
24151;SDS011;12311;50.866;4.332;2023-05-21T02:41:19;7.65;;;2.38;;
24151;SDS011;12311;50.866;4.332;2023-05-21T02:43:45;4.15;;;2.17;;
24151;SDS011;12311;50.866;4.332;2023-05-21T02:46:11;3.65;;;2.30;;
24151;SDS011;12311;50.866;4.332;2023-05-21T02:48:37;4.50;;;2.65;;
24151;SDS011;12311;50.866;4.332;2023-05-21T02:51:02;5.03;;;2.65;;
24151;SDS011;12311;50.866;4.332;2023-05-21T02:53:28;3.83;;;2.78;;
24151;SDS011;12311;50.866;4.332;2023-05-21T02:55:54;3.50;;;2.30;;
24151;SDS011;12311;50.866;4.332;2023-05-21T02:58:23;4.13;;;2.50;;
24151;SDS011;12311;50.866;4.332;2023-05-21T03:00:49;3.58;;;2.30;;
24151;SDS011;12311;50.866;4.332;2023-05-21T03:03:16;4.60;;;2.17;;
24151;SDS011;12311;50.866;4.332;2023-05-21T03:05:42;3.65;;;2.28;;
24151;SDS011;12311;50.866;4.332;2023-05-21T03:08:09;3.78;;;2.40;;
24151;SDS011;12311;50.866;4.332;2023-05-21T03:10:35;11.48;;;3.17;;
24151;SDS011;12311;50.866;4.332;2023-05-21T03:13:00;4.32;;;2.40;;
24151;SDS011;12311;50.866;4.332;2023-05-21T03:15:28;4.00;;;2.22;;
24151;SDS011;12311;50.866;4.332;2023-05-21T03:17:57;3.75;;;2.38;;
24151;SDS011;12311;50.866;4.332;2023-05-21T03:20:23;4.28;;;2.70;;
24151;SDS011;12311;50.866;4.332;2023-05-21T03:22:50;4.55;;;2.55;;
24151;SDS011;12311;50.866;4.332;2023-05-21T03:25:16;4.43;;;1.90;;
24151;SDS011;12311;50.866;4.332;2023-05-21T03:27:42;3.92;;;2.70;;
24151;SDS011;12311;50.866;4.332;2023-05-21T03:30:08;5.13;;;2.67;;
24151;SDS011;12311;50.866;4.332;2023-05-21T03:32:34;4.10;;;2.42;;
24151;SDS011;12311;50.866;4.332;2023-05-21T03:35:02;3.50;;;2.53;;
24151;SDS011;12311;50.866;4.332;2023-05-21T03:37:29;3.10;;;2.00;;
24151;SDS011;12311;50.866;4.332;2023-05-21T03:39:55;4.88;;;2.58;;
24151;SDS011;12311;50.866;4.332;2023-05-21T03:42:20;3.33;;;2.25;;
24151;SDS011;12311;50.866;4.332;2023-05-21T03:44:46;5.45;;;3.05;;
24151;SDS011;12311;50.866;4.332;2023-05-21T03:47:12;4.55;;;2.45;;
24151;SDS011;12311;50.866;4.332;2023-05-21T03:49:37;4.18;;;2.28;;
24151;SDS011;12311;50.866;4.332;2023-05-21T03:52:03;3.13;;;2.15;;
24151;SDS011;12311;50.866;4.332;2023-05-21T03:54:29;5.65;;;2.63;;
24151;SDS011;12311;50.866;4.332;2023-05-21T03:56:54;5.30;;;3.15;;
24151;SDS011;12311;50.866;4.332;2023-05-21T03:59:20;3.63;;;2.58;;
24151;SDS011;12311;50.866;4.332;2023-05-21T04:01:46;8.52;;;3.25;;
24151;SDS011;12311;50.866;4.332;2023-05-21T04:04:11;6.18;;;2.72;;
24151;SDS011;12311;50.866;4.332;2023-05-21T04:06:37;4.82;;;2.72;;
24151;SDS011;12311;50.866;4.332;2023-05-21T04:09:03;4.07;;;2.53;;
24151;SDS011;12311;50.866;4.332;2023-05-21T04:11:28;4.20;;;2.35;;
24151;SDS011;12311;50.866;4.332;2023-05-21T04:13:55;4.82;;;2.47;;
24151;SDS011;12311;50.866;4.332;2023-05-21T04:16:21;4.82;;;2.60;;
24151;SDS011;12311;50.866;4.332;2023-05-21T04:18:48;3.83;;;2.30;;
24151;SDS011;12311;50.866;4.332;2023-05-21T04:21:14;4.00;;;2.17;;
24151;SDS011;12311;50.866;4.332;2023-05-21T04:23:40;4.93;;;2.28;;
24151;SDS011;12311;50.866;4.332;2023-05-21T04:26:06;6.35;;;2.72;;
24151;SDS011;12311;50.866;4.332;2023-05-21T04:28:31;5.13;;;2.80;;
24151;SDS011;12311;50.866;4.332;2023-05-21T04:30:59;5.65;;;2.92;;
24151;SDS011;12311;50.866;4.332;2023-05-21T04:33:25;5.25;;;2.75;;
24151;SDS011;12311;50.866;4.332;2023-05-21T04:35:51;4.90;;;2.72;;
24151;SDS011;12311;50.866;4.332;2023-05-21T04:38:17;5.20;;;2.70;;
24151;SDS011;12311;50.866;4.332;2023-05-21T04:40:52;6.40;;;2.10;;
24151;SDS011;12311;50.866;4.332;2023-05-21T04:43:19;5.82;;;2.63;;
24151;SDS011;12311;50.866;4.332;2023-05-21T04:45:49;9.77;;;3.08;;
24151;SDS011;12311;50.866;4.332;2023-05-21T04:48:21;5.25;;;2.33;;
24151;SDS011;12311;50.866;4.332;2023-05-21T04:50:48;4.80;;;2.90;;
24151;SDS011;12311;50.866;4.332;2023-05-21T04:53:15;4.55;;;2.90;;
24151;SDS011;12311;50.866;4.332;2023-05-21T04:55:41;4.82;;;3.00;;
24151;SDS011;12311;50.866;4.332;2023-05-21T04:58:07;4.47;;;2.15;;
24151;SDS011;12311;50.866;4.332;2023-05-21T05:00:38;4.28;;;2.70;;
24151;SDS011;12311;50.866;4.332;2023-05-21T05:03:06;4.00;;;2.50;;
24151;SDS011;12311;50.866;4.332;2023-05-21T05:05:31;3.97;;;2.17;;
24151;SDS011;12311;50.866;4.332;2023-05-21T05:07:57;6.72;;;2.55;;
24151;SDS011;12311;50.866;4.332;2023-05-21T05:10:23;4.90;;;2.20;;
24151;SDS011;12311;50.866;4.332;2023-05-21T05:12:48;5.60;;;2.67;;
24151;SDS011;12311;50.866;4.332;2023-05-21T05:15:14;5.78;;;2.30;;
24151;SDS011;12311;50.866;4.332;2023-05-21T05:17:40;4.30;;;2.70;;
24151;SDS011;12311;50.866;4.332;2023-05-21T05:20:06;4.70;;;3.00;;
24151;SDS011;12311;50.866;4.332;2023-05-21T05:22:32;5.43;;;2.72;;
24151;SDS011;12311;50.866;4.332;2023-05-21T05:24:59;3.85;;;2.47;;
24151;SDS011;12311;50.866;4.332;2023-05-21T05:27:25;5.07;;;3.13;;
24151;SDS011;12311;50.866;4.332;2023-05-21T05:29:50;3.95;;;2.63;;
24151;SDS011;12311;50.866;4.332;2023-05-21T05:32:16;6.53;;;3.08;;
24151;SDS011;12311;50.866;4.332;2023-05-21T05:34:43;5.63;;;3.25;;
24151;SDS011;12311;50.866;4.332;2023-05-21T05:37:09;4.45;;;2.47;;
24151;SDS011;12311;50.866;4.332;2023-05-21T05:39:35;7.32;;;2.65;;
24151;SDS011;12311;50.866;4.332;2023-05-21T05:42:00;4.03;;;2.40;;
24151;SDS011;12311;50.866;4.332;2023-05-21T05:44:27;5.72;;;2.70;;
24151;SDS011;12311;50.866;4.332;2023-05-21T05:46:53;5.05;;;2.38;;
24151;SDS011;12311;50.866;4.332;2023-05-21T05:49:18;7.45;;;3.40;;
24151;SDS011;12311;50.866;4.332;2023-05-21T05:51:44;5.75;;;2.40;;
24151;SDS011;12311;50.866;4.332;2023-05-21T05:54:10;6.75;;;2.40;;
24151;SDS011;12311;50.866;4.332;2023-05-21T05:56:36;6.60;;;2.17;;
24151;SDS011;12311;50.866;4.332;2023-05-21T05:59:01;4.95;;;2.90;;
24151;SDS011;12311;50.866;4.332;2023-05-21T06:01:27;6.75;;;3.33;;
24151;SDS011;12311;50.866;4.332;2023-05-21T06:03:53;4.18;;;2.35;;
24151;SDS011;12311;50.866;4.332;2023-05-21T06:06:18;5.20;;;2.92;;
24151;SDS011;12311;50.866;4.332;2023-05-21T06:08:44;8.93;;;2.97;;
24151;SDS011;12311;50.866;4.332;2023-05-21T06:11:10;5.40;;;2.97;;
24151;SDS011;12311;50.866;4.332;2023-05-21T06:13:36;5.35;;;2.92;;
24151;SDS011;12311;50.866;4.332;2023-05-21T06:16:02;3.65;;;2.47;;
24151;SDS011;12311;50.866;4.332;2023-05-21T06:18:28;5.97;;;2.90;;
24151;SDS011;12311;50.866;4.332;2023-05-21T06:20:53;3.95;;;2.60;;
24151;SDS011;12311;50.866;4.332;2023-05-21T06:23:19;5.13;;;2.88;;
24151;SDS011;12311;50.866;4.332;2023-05-21T06:25:45;6.45;;;2.60;;
24151;SDS011;12311;50.866;4.332;2023-05-21T06:28:10;3.55;;;2.45;;
24151;SDS011;12311;50.866;4.332;2023-05-21T06:30:36;4.38;;;2.58;;
24151;SDS011;12311;50.866;4.332;2023-05-21T06:33:02;4.43;;;2.65;;
24151;SDS011;12311;50.866;4.332;2023-05-21T06:35:28;4.85;;;2.75;;
24151;SDS011;12311;50.866;4.332;2023-05-21T06:37:53;7.53;;;4.13;;
24151;SDS011;12311;50.866;4.332;2023-05-21T06:40:19;5.50;;;3.05;;
24151;SDS011;12311;50.866;4.332;2023-05-21T06:42:45;4.80;;;2.78;;
24151;SDS011;12311;50.866;4.332;2023-05-21T06:45:11;5.70;;;2.90;;
24151;SDS011;12311;50.866;4.332;2023-05-21T06:47:36;6.32;;;3.00;;
24151;SDS011;12311;50.866;4.332;2023-05-21T06:50:02;7.78;;;3.25;;
24151;SDS011;12311;50.866;4.332;2023-05-21T06:52:28;5.53;;;2.50;;
24151;SDS011;12311;50.866;4.332;2023-05-21T06:54:55;5.65;;;2.95;;
24151;SDS011;12311;50.866;4.332;2023-05-21T06:57:21;6.82;;;3.58;;
24151;SDS011;12311;50.866;4.332;2023-05-21T06:59:47;6.03;;;2.65;;
24151;SDS011;12311;50.866;4.332;2023-05-21T07:02:12;5.45;;;3.15;;
24151;SDS011;12311;50.866;4.332;2023-05-21T07:04:38;5.28;;;2.63;;
24151;SDS011;12311;50.866;4.332;2023-05-21T07:07:04;3.85;;;2.40;;
24151;SDS011;12311;50.866;4.332;2023-05-21T07:09:29;6.05;;;2.50;;
24151;SDS011;12311;50.866;4.332;2023-05-21T07:11:55;5.15;;;2.30;;
24151;SDS011;12311;50.866;4.332;2023-05-21T07:14:22;5.75;;;3.17;;
24151;SDS011;12311;50.866;4.332;2023-05-21T07:16:49;6.82;;;3.03;;
24151;SDS011;12311;50.866;4.332;2023-05-21T07:19:15;4.22;;;2.35;;
24151;SDS011;12311;50.866;4.332;2023-05-21T07:21:40;5.85;;;2.70;;
24151;SDS011;12311;50.866;4.332;2023-05-21T07:24:06;4.25;;;2.80;;
24151;SDS011;12311;50.866;4.332;2023-05-21T07:26:32;7.47;;;3.15;;
24151;SDS011;12311;50.866;4.332;2023-05-21T07:28:57;4.90;;;3.00;;
24151;SDS011;12311;50.866;4.332;2023-05-21T07:31:23;5.20;;;2.97;;
24151;SDS011;12311;50.866;4.332;2023-05-21T07:33:49;4.28;;;2.42;;
24151;SDS011;12311;50.866;4.332;2023-05-21T07:36:15;4.47;;;2.55;;
24151;SDS011;12311;50.866;4.332;2023-05-21T07:38:40;4.80;;;2.55;;
24151;SDS011;12311;50.866;4.332;2023-05-21T07:41:07;8.57;;;3.28;;
24151;SDS011;12311;50.866;4.332;2023-05-21T07:43:33;6.90;;;2.72;;
24151;SDS011;12311;50.866;4.332;2023-05-21T07:45:59;6.72;;;2.55;;
24151;SDS011;12311;50.866;4.332;2023-05-21T07:48:25;4.75;;;2.72;;
24151;SDS011;12311;50.866;4.332;2023-05-21T07:50:51;6.63;;;2.90;;
24151;SDS011;12311;50.866;4.332;2023-05-21T07:53:17;6.05;;;2.97;;
24151;SDS011;12311;50.866;4.332;2023-05-21T07:55:43;5.10;;;3.22;;
24151;SDS011;12311;50.866;4.332;2023-05-21T07:58:17;6.28;;;3.00;;
24151;SDS011;12311;50.866;4.332;2023-05-21T08:00:44;5.25;;;2.55;;
24151;SDS011;12311;50.866;4.332;2023-05-21T08:03:14;7.70;;;2.83;;
24151;SDS011;12311;50.866;4.332;2023-05-21T08:08:18;6.30;;;3.00;;
24151;SDS011;12311;50.866;4.332;2023-05-21T08:10:45;6.60;;;2.85;;
24151;SDS011;12311;50.866;4.332;2023-05-21T08:13:12;4.63;;;2.33;;
24151;SDS011;12311;50.866;4.332;2023-05-21T08:15:38;4.95;;;2.92;;
24151;SDS011;12311;50.866;4.332;2023-05-21T08:18:04;5.82;;;3.03;;
24151;SDS011;12311;50.866;4.332;2023-05-21T08:20:30;5.57;;;2.90;;
24151;SDS011;12311;50.866;4.332;2023-05-21T08:22:57;5.65;;;3.25;;
24151;SDS011;12311;50.866;4.332;2023-05-21T08:25:24;4.05;;;2.33;;
24151;SDS011;12311;50.866;4.332;2023-05-21T08:27:50;5.65;;;2.67;;
24151;SDS011;12311;50.866;4.332;2023-05-21T08:30:16;7.55;;;3.03;;
24151;SDS011;12311;50.866;4.332;2023-05-21T08:32:42;6.70;;;3.17;;
24151;SDS011;12311;50.866;4.332;2023-05-21T08:35:08;5.93;;;3.50;;
24151;SDS011;12311;50.866;4.332;2023-05-21T08:37:33;8.63;;;3.00;;
24151;SDS011;12311;50.866;4.332;2023-05-21T08:39:59;5.78;;;2.83;;
24151;SDS011;12311;50.866;4.332;2023-05-21T08:45:11;4.75;;;2.47;;
24151;SDS011;12311;50.866;4.332;2023-05-21T08:47:40;5.93;;;3.08;;
24151;SDS011;12311;50.866;4.332;2023-05-21T08:50:09;6.30;;;3.00;;
24151;SDS011;12311;50.866;4.332;2023-05-21T08:52:37;6.45;;;3.05;;
24151;SDS011;12311;50.866;4.332;2023-05-21T08:55:03;6.28;;;3.00;;
24151;SDS011;12311;50.866;4.332;2023-05-21T08:57:30;6.20;;;3.03;;
24151;SDS011;12311;50.866;4.332;2023-05-21T08:59:56;5.28;;;2.92;;
24151;SDS011;12311;50.866;4.332;2023-05-21T09:02:23;6.15;;;3.30;;
24151;SDS011;12311;50.866;4.332;2023-05-21T09:04:54;7.30;;;3.13;;
24151;SDS011;12311;50.866;4.332;2023-05-21T09:07:26;5.28;;;2.75;;
24151;SDS011;12311;50.866;4.332;2023-05-21T09:09:57;6.88;;;3.28;;
24151;SDS011;12311;50.866;4.332;2023-05-21T09:12:27;5.90;;;2.72;;
24151;SDS011;12311;50.866;4.332;2023-05-21T09:14:53;7.47;;;2.95;;
24151;SDS011;12311;50.866;4.332;2023-05-21T09:17:20;7.47;;;3.10;;
24151;SDS011;12311;50.866;4.332;2023-05-21T09:22:35;6.57;;;3.22;;
24151;SDS011;12311;50.866;4.332;2023-05-21T09:25:04;5.82;;;3.03;;
24151;SDS011;12311;50.866;4.332;2023-05-21T09:27:32;6.75;;;3.13;;
24151;SDS011;12311;50.866;4.332;2023-05-21T09:29:58;5.95;;;2.80;;
24151;SDS011;12311;50.866;4.332;2023-05-21T09:32:24;4.53;;;2.63;;
24151;SDS011;12311;50.866;4.332;2023-05-21T09:34:49;7.03;;;3.50;;
24151;SDS011;12311;50.866;4.332;2023-05-21T09:37:15;6.97;;;3.17;;
24151;SDS011;12311;50.866;4.332;2023-05-21T09:39:41;8.25;;;3.60;;
24151;SDS011;12311;50.866;4.332;2023-05-21T09:42:07;6.75;;;3.33;;
24151;SDS011;12311;50.866;4.332;2023-05-21T09:44:33;4.80;;;2.75;;
24151;SDS011;12311;50.866;4.332;2023-05-21T09:46:59;5.28;;;2.30;;
24151;SDS011;12311;50.866;4.332;2023-05-21T09:49:26;7.72;;;3.70;;
24151;SDS011;12311;50.866;4.332;2023-05-21T09:51:58;5.68;;;3.10;;
24151;SDS011;12311;50.866;4.332;2023-05-21T09:54:30;7.22;;;3.00;;
24151;SDS011;12311;50.866;4.332;2023-05-21T09:56:57;6.00;;;2.60;;
24151;SDS011;12311;50.866;4.332;2023-05-21T09:59:34;6.70;;;3.38;;
24151;SDS011;12311;50.866;4.332;2023-05-21T10:02:13;7.82;;;3.15;;
24151;SDS011;12311;50.866;4.332;2023-05-21T10:04:44;6.82;;;3.63;;
24151;SDS011;12311;50.866;4.332;2023-05-21T10:07:14;5.32;;;2.58;;
24151;SDS011;12311;50.866;4.332;2023-05-21T10:09:50;6.25;;;3.15;;
24151;SDS011;12311;50.866;4.332;2023-05-21T10:12:22;7.18;;;3.50;;
24151;SDS011;12311;50.866;4.332;2023-05-21T10:14:58;6.82;;;3.38;;
24151;SDS011;12311;50.866;4.332;2023-05-21T10:17:26;9.55;;;3.08;;
24151;SDS011;12311;50.866;4.332;2023-05-21T10:19:54;10.68;;;3.35;;
24151;SDS011;12311;50.866;4.332;2023-05-21T10:22:24;6.57;;;3.35;;
24151;SDS011;12311;50.866;4.332;2023-05-21T10:24:53;6.25;;;3.08;;
24151;SDS011;12311;50.866;4.332;2023-05-21T10:27:18;6.25;;;3.03;;
24151;SDS011;12311;50.866;4.332;2023-05-21T10:29:46;7.20;;;3.03;;
24151;SDS011;12311;50.866;4.332;2023-05-21T10:32:14;8.05;;;3.97;;
24151;SDS011;12311;50.866;4.332;2023-05-21T10:34:43;6.60;;;3.47;;
24151;SDS011;12311;50.866;4.332;2023-05-21T10:37:09;4.28;;;2.50;;
24151;SDS011;12311;50.866;4.332;2023-05-21T10:39:37;6.38;;;3.20;;
24151;SDS011;12311;50.866;4.332;2023-05-21T10:53:15;7.18;;;3.20;;
24151;SDS011;12311;50.866;4.332;2023-05-21T11:01:08;5.25;;;2.65;;
24151;SDS011;12311;50.866;4.332;2023-05-21T11:03:34;6.25;;;3.13;;
24151;SDS011;12311;50.866;4.332;2023-05-21T11:06:01;6.43;;;3.10;;
24151;SDS011;12311;50.866;4.332;2023-05-21T11:08:30;6.50;;;3.13;;
24151;SDS011;12311;50.866;4.332;2023-05-21T11:10:59;7.45;;;3.15;;
24151;SDS011;12311;50.866;4.332;2023-05-21T11:13:25;7.57;;;3.88;;
24151;SDS011;12311;50.866;4.332;2023-05-21T11:21:03;6.97;;;3.67;;
24151;SDS011;12311;50.866;4.332;2023-05-21T11:23:55;9.18;;;4.15;;
24151;SDS011;12311;50.866;4.332;2023-05-21T11:26:25;6.28;;;3.55;;
24151;SDS011;12311;50.866;4.332;2023-05-21T11:31:31;5.90;;;3.08;;
24151;SDS011;12311;50.866;4.332;2023-05-21T11:36:43;6.50;;;3.30;;
24151;SDS011;12311;50.866;4.332;2023-05-21T11:39:13;6.63;;;3.55;;
24151;SDS011;12311;50.866;4.332;2023-05-21T11:44:42;5.82;;;3.65;;
24151;SDS011;12311;50.866;4.332;2023-05-21T11:47:12;8.70;;;4.63;;
24151;SDS011;12311;50.866;4.332;2023-05-21T11:49:39;5.90;;;3.15;;
24151;SDS011;12311;50.866;4.332;2023-05-21T11:52:07;6.07;;;4.03;;
24151;SDS011;12311;50.866;4.332;2023-05-21T11:54:41;5.45;;;3.35;;
24151;SDS011;12311;50.866;4.332;2023-05-21T11:57:10;8.02;;;3.97;;
24151;SDS011;12311;50.866;4.332;2023-05-21T11:59:40;6.57;;;3.70;;
24151;SDS011;12311;50.866;4.332;2023-05-21T12:02:06;8.38;;;4.05;;
24151;SDS011;12311;50.866;4.332;2023-05-21T12:04:32;9.00;;;3.95;;
24151;SDS011;12311;50.866;4.332;2023-05-21T12:07:02;9.27;;;4.18;;
24151;SDS011;12311;50.866;4.332;2023-05-21T12:09:29;7.80;;;4.45;;
24151;SDS011;12311;50.866;4.332;2023-05-21T12:11:54;8.60;;;3.88;;
24151;SDS011;12311;50.866;4.332;2023-05-21T12:14:20;8.85;;;4.78;;
24151;SDS011;12311;50.866;4.332;2023-05-21T12:16:47;8.90;;;4.53;;
24151;SDS011;12311;50.866;4.332;2023-05-21T12:19:12;8.73;;;4.20;;
24151;SDS011;12311;50.866;4.332;2023-05-21T12:21:42;6.82;;;3.60;;
24151;SDS011;12311;50.866;4.332;2023-05-21T12:24:08;10.70;;;4.72;;
24151;SDS011;12311;50.866;4.332;2023-05-21T12:26:34;10.38;;;4.68;;
24151;SDS011;12311;50.866;4.332;2023-05-21T12:29:00;8.10;;;3.97;;
24151;SDS011;12311;50.866;4.332;2023-05-21T12:31:28;5.95;;;3.90;;
24151;SDS011;12311;50.866;4.332;2023-05-21T12:33:54;6.70;;;3.78;;
24151;SDS011;12311;50.866;4.332;2023-05-21T12:36:27;9.10;;;4.03;;
24151;SDS011;12311;50.866;4.332;2023-05-21T12:38:56;9.25;;;3.95;;
24151;SDS011;12311;50.866;4.332;2023-05-21T12:41:22;8.23;;;3.72;;
24151;SDS011;12311;50.866;4.332;2023-05-21T12:43:48;9.07;;;4.70;;
24151;SDS011;12311;50.866;4.332;2023-05-21T12:46:15;15.90;;;6.00;;
24151;SDS011;12311;50.866;4.332;2023-05-21T12:48:49;8.93;;;4.25;;
24151;SDS011;12311;50.866;4.332;2023-05-21T12:51:18;7.18;;;3.92;;
24151;SDS011;12311;50.866;4.332;2023-05-21T12:53:44;7.65;;;3.97;;
24151;SDS011;12311;50.866;4.332;2023-05-21T12:56:11;9.13;;;4.25;;
24151;SDS011;12311;50.866;4.332;2023-05-21T12:58:41;9.35;;;4.38;;
24151;SDS011;12311;50.866;4.332;2023-05-21T13:01:13;8.82;;;4.95;;
24151;SDS011;12311;50.866;4.332;2023-05-21T13:03:42;10.82;;;4.88;;
24151;SDS011;12311;50.866;4.332;2023-05-21T13:06:09;8.25;;;3.60;;
24151;SDS011;12311;50.866;4.332;2023-05-21T13:08:35;7.25;;;3.60;;
24151;SDS011;12311;50.866;4.332;2023-05-21T13:11:01;12.02;;;4.90;;
24151;SDS011;12311;50.866;4.332;2023-05-21T13:13:27;11.48;;;4.45;;
24151;SDS011;12311;50.866;4.332;2023-05-21T13:15:53;6.63;;;3.67;;
24151;SDS011;12311;50.866;4.332;2023-05-21T13:18:20;8.20;;;3.85;;
24151;SDS011;12311;50.866;4.332;2023-05-21T13:20:46;8.07;;;3.88;;
24151;SDS011;12311;50.866;4.332;2023-05-21T13:23:13;7.35;;;3.88;;
24151;SDS011;12311;50.866;4.332;2023-05-21T13:25:42;6.80;;;4.22;;
24151;SDS011;12311;50.866;4.332;2023-05-21T13:28:08;7.65;;;4.20;;
24151;SDS011;12311;50.866;4.332;2023-05-21T13:30:38;9.27;;;4.43;;
24151;SDS011;12311;50.866;4.332;2023-05-21T13:33:05;6.15;;;3.50;;
24151;SDS011;12311;50.866;4.332;2023-05-21T13:35:30;5.85;;;3.65;;
24151;SDS011;12311;50.866;4.332;2023-05-21T13:37:56;7.65;;;3.95;;
24151;SDS011;12311;50.866;4.332;2023-05-21T13:40:22;5.95;;;3.38;;
24151;SDS011;12311;50.866;4.332;2023-05-21T13:42:48;6.65;;;3.45;;
24151;SDS011;12311;50.866;4.332;2023-05-21T13:45:18;8.77;;;4.10;;
24151;SDS011;12311;50.866;4.332;2023-05-21T13:47:45;7.40;;;4.90;;
24151;SDS011;12311;50.866;4.332;2023-05-21T13:50:11;7.80;;;4.25;;
24151;SDS011;12311;50.866;4.332;2023-05-21T13:52:37;7.70;;;4.10;;
24151;SDS011;12311;50.866;4.332;2023-05-21T13:55:03;7.22;;;3.40;;
24151;SDS011;12311;50.866;4.332;2023-05-21T13:57:30;7.68;;;3.53;;
24151;SDS011;12311;50.866;4.332;2023-05-21T13:59:56;6.90;;;3.83;;
24151;SDS011;12311;50.866;4.332;2023-05-21T14:02:22;8.43;;;4.28;;
24151;SDS011;12311;50.866;4.332;2023-05-21T14:04:48;7.05;;;3.40;;
24151;SDS011;12311;50.866;4.332;2023-05-21T14:07:14;8.30;;;3.80;;
24151;SDS011;12311;50.866;4.332;2023-05-21T14:09:39;7.50;;;4.07;;
24151;SDS011;12311;50.866;4.332;2023-05-21T14:12:06;11.77;;;4.68;;
24151;SDS011;12311;50.866;4.332;2023-05-21T14:14:32;9.05;;;3.67;;
24151;SDS011;12311;50.866;4.332;2023-05-21T14:16:58;8.57;;;4.30;;
24151;SDS011;12311;50.866;4.332;2023-05-21T14:19:23;8.23;;;4.25;;
24151;SDS011;12311;50.866;4.332;2023-05-21T14:21:52;5.80;;;3.65;;
24151;SDS011;12311;50.866;4.332;2023-05-21T14:24:18;5.80;;;3.33;;
24151;SDS011;12311;50.866;4.332;2023-05-21T14:26:43;5.95;;;3.33;;
24151;SDS011;12311;50.866;4.332;2023-05-21T14:29:09;6.28;;;3.70;;
24151;SDS011;12311;50.866;4.332;2023-05-21T14:31:35;7.93;;;4.03;;
24151;SDS011;12311;50.866;4.332;2023-05-21T14:34:01;6.32;;;3.90;;
24151;SDS011;12311;50.866;4.332;2023-05-21T14:36:28;7.20;;;3.35;;
24151;SDS011;12311;50.866;4.332;2023-05-21T14:38:53;5.93;;;3.60;;
24151;SDS011;12311;50.866;4.332;2023-05-21T14:41:22;8.25;;;4.03;;
24151;SDS011;12311;50.866;4.332;2023-05-21T14:46:16;6.00;;;3.25;;
24151;SDS011;12311;50.866;4.332;2023-05-21T14:48:41;7.22;;;3.58;;
24151;SDS011;12311;50.866;4.332;2023-05-21T14:51:07;6.32;;;3.67;;
24151;SDS011;12311;50.866;4.332;2023-05-21T14:53:32;9.00;;;4.32;;
24151;SDS011;12311;50.866;4.332;2023-05-21T14:55:58;8.65;;;3.72;;
24151;SDS011;12311;50.866;4.332;2023-05-21T14:58:24;7.45;;;4.30;;
24151;SDS011;12311;50.866;4.332;2023-05-21T15:00:49;7.78;;;3.65;;
24151;SDS011;12311;50.866;4.332;2023-05-21T15:03:15;7.90;;;3.58;;
24151;SDS011;12311;50.866;4.332;2023-05-21T15:05:41;9.13;;;4.22;;
24151;SDS011;12311;50.866;4.332;2023-05-21T15:08:06;6.85;;;3.53;;
24151;SDS011;12311;50.866;4.332;2023-05-21T15:10:33;7.93;;;3.67;;
24151;SDS011;12311;50.866;4.332;2023-05-21T15:12:59;5.90;;;3.40;;
24151;SDS011;12311;50.866;4.332;2023-05-21T15:15:25;6.00;;;3.28;;
24151;SDS011;12311;50.866;4.332;2023-05-21T15:17:50;6.55;;;3.65;;
24151;SDS011;12311;50.866;4.332;2023-05-21T15:20:16;5.60;;;3.58;;
24151;SDS011;12311;50.866;4.332;2023-05-21T15:22:43;6.30;;;3.63;;
24151;SDS011;12311;50.866;4.332;2023-05-21T15:25:10;7.18;;;3.38;;
24151;SDS011;12311;50.866;4.332;2023-05-21T15:27:35;6.55;;;3.67;;
24151;SDS011;12311;50.866;4.332;2023-05-21T15:30:01;11.00;;;4.93;;
24151;SDS011;12311;50.866;4.332;2023-05-21T15:32:27;6.93;;;3.88;;